Time;durP1;ratioP1;P1;durP2;ratioP2;P2;SDS_P1;SDS_P2;PMS_P1;PMS_P2;Temp;Humidity;BMP_temperature;BMP_pressure;BME280_temperature;BME280_humidity;BME280_pressure;Samples;Min_cycle;Max_cycle;Signal;HPM_P1;HPM_P2
2024/03/26 00:02:55;;;;;;;11.10;3.35;;;8.70;1.00;;;;;;6180325;28;20490;-82
2024/03/26 00:05:56;;;;;;;9.27;3.53;;;8.70;1.00;;;;;;6218139;28;20064;-82
2024/03/26 00:08:57;;;;;;;7.85;3.53;;;8.70;1.00;;;;;;6198702;28;20141;-80
2024/03/26 00:11:57;;;;;;;12.35;3.53;;;8.60;1.00;;;;;;6202280;28;20153;-82
2024/03/26 00:14:58;;;;;;;7.75;3.05;;;8.50;1.00;;;;;;6185178;28;20530;-82
2024/03/26 00:17:59;;;;;;;7.97;2.97;;;8.50;1.00;;;;;;6219192;28;20137;-82
2024/03/26 00:21:00;;;;;;;8.65;3.40;;;8.50;1.00;;;;;;6197080;28;20053;-82
2024/03/26 00:24:00;;;;;;;9.35;3.38;;;8.50;1.00;;;;;;6195689;28;20422;-82
2024/03/26 00:27:01;;;;;;;9.52;3.60;;;8.50;1.00;;;;;;6202123;28;20054;-83
2024/03/26 00:30:02;;;;;;;13.10;3.70;;;8.50;1.00;;;;;;6207807;28;20076;-82
2024/03/26 00:33:02;;;;;;;6.95;3.30;;;8.50;1.00;;;;;;6212763;28;20121;-82
2024/03/26 00:36:03;;;;;;;7.90;3.45;;;8.50;1.00;;;;;;6202436;28;20058;-81
2024/03/26 00:39:05;;;;;;;10.88;3.83;;;8.50;1.00;;;;;;6195120;28;20054;-82
2024/03/26 00:42:05;;;;;;;5.93;3.13;;;8.50;1.00;;;;;;6218807;28;20054;-82
2024/03/26 00:45:06;;;;;;;9.90;3.65;;;8.60;1.00;;;;;;6178274;28;20056;-82
2024/03/26 00:48:06;;;;;;;8.63;3.53;;;8.70;1.00;;;;;;6201147;28;20061;-81
2024/03/26 00:51:07;;;;;;;14.52;3.50;;;8.70;1.00;;;;;;6195079;28;20413;-81
2024/03/26 00:54:08;;;;;;;7.22;3.35;;;8.70;1.00;;;;;;6216802;28;20057;-82
2024/03/26 00:57:08;;;;;;;10.43;4.00;;;8.70;1.00;;;;;;6201998;28;20050;-82
2024/03/26 01:00:10;;;;;;;11.93;3.88;;;8.80;1.00;;;;;;6189045;28;20660;-81
2024/03/26 01:03:11;;;;;;;11.45;3.30;;;8.80;1.00;;;;;;6217834;28;20050;-82
2024/03/26 01:06:12;;;;;;;7.65;3.50;;;8.90;1.00;;;;;;6194163;28;20065;-82
2024/03/26 01:09:12;;;;;;;10.32;3.65;;;8.80;1.00;;;;;;6178533;28;20058;-82
2024/03/26 01:12:13;;;;;;;7.72;3.22;;;8.90;1.00;;;;;;6217212;28;20092;-81
2024/03/26 01:15:13;;;;;;;8.32;3.72;;;8.90;1.00;;;;;;6188419;28;20074;-80
2024/03/26 01:18:14;;;;;;;7.80;3.38;;;8.90;1.00;;;;;;6192902;28;20064;-81
2024/03/26 01:21:15;;;;;;;9.93;3.13;;;8.90;1.00;;;;;;6153343;28;20422;-81
2024/03/26 01:24:15;;;;;;;9.23;3.20;;;8.90;1.00;;;;;;6192588;28;20093;-80
2024/03/26 01:27:16;;;;;;;9.40;3.88;;;8.90;1.00;;;;;;6172573;28;20062;-80
2024/03/26 01:30:17;;;;;;;11.65;3.40;;;9.00;1.00;;;;;;6187722;28;20152;-82
2024/03/26 01:33:18;;;;;;;9.98;3.28;;;9.00;1.00;;;;;;6193106;28;20058;-81
2024/03/26 01:36:18;;;;;;;8.00;3.15;;;9.00;1.00;;;;;;6154889;28;20065;-81
2024/03/26 01:39:19;;;;;;;8.45;2.80;;;9.00;1.00;;;;;;6197985;28;20636;-81
2024/03/26 01:42:19;;;;;;;9.23;3.72;;;9.00;1.00;;;;;;6159220;28;20066;-82
2024/03/26 01:45:20;;;;;;;8.90;3.50;;;9.00;1.00;;;;;;6179350;28;20080;-82
2024/03/26 01:48:21;;;;;;;8.65;3.35;;;9.10;1.00;;;;;;6159378;28;20051;-82
2024/03/26 01:51:21;;;;;;;10.18;3.65;;;9.10;1.00;;;;;;6198079;28;20058;-83
2024/03/26 01:54:22;;;;;;;8.10;2.90;;;9.00;1.00;;;;;;6197144;28;20062;-81
2024/03/26 01:57:22;;;;;;;10.23;3.47;;;9.10;1.00;;;;;;6199379;28;20062;-83
2024/03/26 02:00:24;;;;;;;8.48;3.58;;;9.00;1.00;;;;;;6165411;28;20426;-82
2024/03/26 02:03:24;;;;;;;8.68;3.38;;;9.00;1.00;;;;;;6197240;28;20101;-84
2024/03/26 02:06:25;;;;;;;9.52;3.20;;;9.00;1.00;;;;;;6161930;28;20450;-81
2024/03/26 02:09:26;;;;;;;8.48;3.45;;;9.00;1.00;;;;;;6184425;28;20100;-81
2024/03/26 02:12:26;;;;;;;12.80;3.58;;;9.10;1.00;;;;;;6178811;28;20062;-82
2024/03/26 02:15:27;;;;;;;8.98;3.30;;;9.00;1.00;;;;;;6206654;28;20133;-80
2024/03/26 02:18:28;;;;;;;8.48;3.40;;;9.00;1.00;;;;;;6202445;28;20046;-81
2024/03/26 02:21:29;;;;;;;11.93;3.60;;;9.00;1.00;;;;;;6226074;28;20054;-81
2024/03/26 02:24:29;;;;;;;7.80;3.35;;;9.00;1.00;;;;;;6203336;28;20050;-80
2024/03/26 02:27:30;;;;;;;8.50;3.60;;;9.00;1.00;;;;;;6182538;28;20054;-81
2024/03/26 02:30:30;;;;;;;12.10;3.72;;;9.00;1.00;;;;;;6209972;28;20060;-82
2024/03/26 02:33:31;;;;;;;8.95;3.40;;;9.00;1.00;;;;;;6197595;28;20058;-82
2024/03/26 02:36:32;;;;;;;11.27;3.78;;;9.10;1.00;;;;;;6205516;28;20386;-82
2024/03/26 02:39:32;;;;;;;10.32;3.85;;;9.10;1.00;;;;;;6190203;28;20050;-82
2024/03/26 02:42:33;;;;;;;9.18;3.58;;;9.10;1.00;;;;;;6211731;28;20053;-81
2024/03/26 02:45:34;;;;;;;7.38;3.47;;;9.10;1.00;;;;;;6199541;28;20506;-81
2024/03/26 02:48:35;;;;;;;10.30;3.40;;;9.10;1.00;;;;;;6219907;28;20064;-81
2024/03/26 02:51:35;;;;;;;8.10;3.40;;;9.10;1.00;;;;;;6196240;28;20133;-81
2024/03/26 02:54:36;;;;;;;12.60;3.65;;;9.00;1.00;;;;;;6194146;28;20065;-81
2024/03/26 02:57:37;;;;;;;9.25;3.80;;;9.00;1.00;;;;;;6218951;28;20413;-81
2024/03/26 03:00:37;;;;;;;10.88;3.53;;;9.00;1.00;;;;;;6184383;28;20058;-83
2024/03/26 03:03:38;;;;;;;7.88;3.42;;;9.00;1.00;;;;;;6219641;28;20053;-81
2024/03/26 03:06:38;;;;;;;10.13;3.70;;;9.00;1.00;;;;;;6193867;28;20403;-82
2024/03/26 03:09:39;;;;;;;7.80;3.70;;;9.00;1.00;;;;;;6202093;28;20054;-81
2024/03/26 03:12:40;;;;;;;8.93;3.88;;;9.00;1.00;;;;;;6197033;28;20073;-82
2024/03/26 03:15:40;;;;;;;9.80;3.95;;;9.00;1.00;;;;;;6222373;28;20062;-81
2024/03/26 03:18:41;;;;;;;9.88;3.85;;;9.00;1.00;;;;;;6187473;28;20057;-81
2024/03/26 03:21:41;;;;;;;12.05;3.90;;;9.00;1.00;;;;;;6226598;28;20065;-82
2024/03/26 03:24:42;;;;;;;9.68;3.90;;;9.00;1.00;;;;;;6203430;28;20098;-82
2024/03/26 03:27:43;;;;;;;8.77;4.07;;;9.00;1.00;;;;;;6226688;28;20069;-80
2024/03/26 03:30:43;;;;;;;10.38;4.10;;;9.00;1.00;;;;;;6205987;28;20135;-81
2024/03/26 03:33:44;;;;;;;11.50;3.95;;;9.00;1.00;;;;;;6203823;28;20060;-81
2024/03/26 03:36:45;;;;;;;10.73;3.97;;;9.00;1.00;;;;;;6226361;28;20061;-81
2024/03/26 03:39:45;;;;;;;12.10;4.30;;;9.00;1.00;;;;;;6186987;28;20068;-83
2024/03/26 03:42:46;;;;;;;10.93;4.18;;;9.00;1.00;;;;;;6209998;28;20057;-83
2024/03/26 03:45:47;;;;;;;11.85;4.50;;;9.10;1.00;;;;;;6188904;28;20058;-84
2024/03/26 03:48:47;;;;;;;8.52;3.83;;;9.10;1.00;;;;;;6226531;28;20045;-81
2024/03/26 03:51:48;;;;;;;10.48;4.57;;;9.00;1.00;;;;;;6215377;28;20065;-82
2024/03/26 03:54:49;;;;;;;15.00;4.78;;;9.00;1.00;;;;;;6187113;28;20394;-82
2024/03/26 03:57:50;;;;;;;8.88;4.10;;;9.00;1.00;;;;;;6210054;28;20140;-82
2024/03/26 04:00:50;;;;;;;16.00;4.18;;;9.10;1.00;;;;;;6180293;28;20492;-83
2024/03/26 04:03:51;;;;;;;12.38;4.30;;;9.10;1.00;;;;;;6202777;28;20053;-82
2024/03/26 04:06:51;;;;;;;10.38;4.10;;;9.10;1.00;;;;;;6217963;28;20057;-81
2024/03/26 04:09:52;;;;;;;9.75;4.13;;;9.10;1.00;;;;;;6226366;28;20090;-81
2024/03/26 04:12:53;;;;;;;11.80;4.68;;;9.10;1.00;;;;;;6188410;28;20061;-81
2024/03/26 04:15:53;;;;;;;16.52;4.72;;;9.00;1.00;;;;;;6221154;28;20536;-81
2024/03/26 04:18:54;;;;;;;10.18;4.38;;;9.00;1.00;;;;;;6202517;28;20602;-81
2024/03/26 04:21:55;;;;;;;9.30;4.22;;;9.00;1.30;;;;;;6225536;28;20050;-82
2024/03/26 04:24:55;;;;;;;10.95;4.00;;;9.00;7.10;;;;;;6226713;28;20057;-81
2024/03/26 04:27:56;;;;;;;10.07;4.20;;;9.00;5.30;;;;;;6202197;28;20073;-81
2024/03/26 04:30:57;;;;;;;13.30;4.45;;;9.00;6.20;;;;;;6215960;28;20053;-81
2024/03/26 04:33:57;;;;;;;13.57;4.28;;;9.00;4.00;;;;;;6213306;28;20055;-81
2024/03/26 04:36:58;;;;;;;9.80;4.47;;;9.00;7.00;;;;;;6226154;28;20409;-81
2024/03/26 04:39:59;;;;;;;12.40;4.63;;;8.90;5.70;;;;;;6185689;28;20563;-80
2024/03/26 04:42:59;;;;;;;7.47;3.90;;;8.90;7.00;;;;;;6224655;28;20056;-81
2024/03/26 04:46:00;;;;;;;10.52;4.13;;;8.90;18.80;;;;;;6199051;23;20513;-80
2024/03/26 04:49:01;;;;;;;9.15;3.55;;;8.90;26.40;;;;;;6185795;28;20144;-80
2024/03/26 04:52:02;;;;;;;8.60;3.97;;;8.80;38.20;;;;;;6173721;28;20508;-80
2024/03/26 04:55:03;;;;;;;10.52;4.07;;;8.80;46.50;;;;;;6201412;28;20089;-80
2024/03/26 04:58:03;;;;;;;11.98;4.10;;;8.70;50.50;;;;;;6185119;28;20053;-80
2024/03/26 05:01:04;;;;;;;8.82;4.00;;;8.70;51.30;;;;;;6184142;28;20061;-80
2024/03/26 05:04:05;;;;;;;10.02;3.92;;;8.70;40.10;;;;;;6201670;28;20137;-80
2024/03/26 05:07:06;;;;;;;10.80;4.30;;;8.80;33.10;;;;;;6179539;28;20057;-80
2024/03/26 05:10:07;;;;;;;10.50;4.30;;;8.80;26.40;;;;;;6184656;28;20065;-80
2024/03/26 05:13:08;;;;;;;11.43;4.28;;;8.80;37.80;;;;;;6184804;28;20058;-80
2024/03/26 05:16:08;;;;;;;8.70;4.22;;;8.80;28.10;;;;;;6174959;28;20536;-80
2024/03/26 05:19:09;;;;;;;11.55;4.40;;;8.80;26.40;;;;;;6161100;28;20061;-80
2024/03/26 05:22:10;;;;;;;11.75;4.53;;;8.80;29.00;;;;;;6184753;28;20060;-80
2024/03/26 05:25:10;;;;;;;9.35;4.18;;;8.80;37.80;;;;;;6201374;28;20053;-80
2024/03/26 05:28:11;;;;;;;12.43;4.43;;;8.70;50.50;;;;;;6184254;28;20643;-80
2024/03/26 05:31:12;;;;;;;9.85;4.20;;;8.80;42.40;;;;;;6184360;28;20050;-80
2024/03/26 05:34:12;;;;;;;11.10;4.20;;;8.70;63.80;;;;;;6199311;28;20049;-80
2024/03/26 05:37:13;;;;;;;9.30;3.63;;;8.60;50.40;;;;;;6202235;28;20056;-82
2024/03/26 05:40:14;;;;;;;10.38;3.97;;;8.60;62.60;;;;;;6189877;28;20141;-80
2024/03/26 05:46:41;;;;;;;12.18;4.43;;;8.60;64.60;;;;;;6200691;28;20099;-78
2024/03/26 05:49:42;;;;;;;10.27;4.60;;;8.50;70.10;;;;;;6205842;28;20054;-80
2024/03/26 05:52:42;;;;;;;10.18;3.88;;;8.40;69.20;;;;;;6187042;28;20079;-80
2024/03/26 05:55:43;;;;;;;9.00;4.03;;;8.40;67.30;;;;;;6203885;28;20111;-79
2024/03/26 05:58:44;;;;;;;8.82;4.20;;;8.40;70.50;;;;;;6199800;28;20501;-79
2024/03/26 06:01:44;;;;;;;9.77;4.47;;;8.40;68.80;;;;;;6181967;28;20054;-79
2024/03/26 06:04:45;;;;;;;10.90;4.68;;;8.40;68.70;;;;;;6188674;28;20093;-80
2024/03/26 06:07:46;;;;;;;9.45;4.20;;;8.50;60.30;;;;;;6181412;28;20057;-80
2024/03/26 06:10:47;;;;;;;18.52;4.70;;;8.40;63.90;;;;;;6202931;28;20640;-80
2024/03/26 06:13:48;;;;;;;12.68;4.65;;;8.40;73.30;;;;;;6183743;28;20054;-79
2024/03/26 06:16:48;;;;;;;9.32;4.47;;;8.40;76.90;;;;;;6181627;28;20093;-80
2024/03/26 06:19:49;;;;;;;11.90;4.82;;;8.50;70.50;;;;;;6204390;28;20065;-80
2024/03/26 06:22:50;;;;;;;12.05;4.45;;;8.50;77.10;;;;;;6181241;28;20058;-80
2024/03/26 06:25:50;;;;;;;11.52;5.25;;;8.50;75.40;;;;;;6186610;28;20060;-79
2024/03/26 06:28:51;;;;;;;13.73;5.20;;;8.60;68.20;;;;;;6184170;28;20485;-80
2024/03/26 06:31:52;;;;;;;12.63;5.35;;;8.70;66.10;;;;;;6181166;28;20081;-80
2024/03/26 06:34:53;;;;;;;12.40;5.60;;;8.70;57.40;;;;;;6204009;28;20054;-80
2024/03/26 06:37:53;;;;;;;11.50;5.38;;;8.80;54.20;;;;;;6164687;28;20066;-80
2024/03/26 06:40:54;;;;;;;13.15;5.50;;;8.80;48.60;;;;;;6203046;28;20144;-80
2024/03/26 06:43:55;;;;;;;12.38;5.32;;;9.00;46.40;;;;;;6170056;28;20050;-79
2024/03/26 06:46:55;;;;;;;15.45;5.68;;;9.10;43.40;;;;;;6204047;28;20783;-79
2024/03/26 06:49:56;;;;;;;13.50;5.40;;;9.20;41.90;;;;;;6180766;28;20141;-79
2024/03/26 06:52:57;;;;;;;12.63;5.55;;;9.70;40.10;;;;;;6187617;28;20080;-80
2024/03/26 06:55:57;;;;;;;10.98;5.18;;;10.10;22.50;;;;;;6201427;28;20049;-79
2024/03/26 06:58:58;;;;;;;13.60;5.38;;;10.40;18.90;;;;;;6165292;28;20053;-79
2024/03/26 07:02:03;;;;;;;18.30;5.63;;;10.30;11.30;;;;;;6186468;28;20072;-80
2024/03/26 07:05:05;;;;;;;16.30;5.97;;;10.30;11.40;;;;;;6163266;28;20665;-79
2024/03/26 07:08:06;;;;;;;12.73;5.82;;;10.30;13.00;;;;;;6203048;28;20409;-80
2024/03/26 07:11:06;;;;;;;13.95;5.90;;;10.30;12.00;;;;;;6163934;28;20051;-80
2024/03/26 07:14:07;;;;;;;11.75;5.32;;;10.20;15.70;;;;;;6152882;28;20054;-81
2024/03/26 07:17:07;;;;;;;11.82;5.60;;;10.20;13.50;;;;;;6203002;28;20061;-80
2024/03/26 07:20:09;;;;;;;13.18;5.55;;;10.20;6.60;;;;;;6179332;28;20067;-80
2024/03/26 07:23:10;;;;;;;11.30;5.50;;;10.30;6.70;;;;;;6186855;28;20097;-81
2024/03/26 07:26:10;;;;;;;15.30;5.53;;;10.30;4.70;;;;;;6179464;28;20062;-81
2024/03/26 07:29:11;;;;;;;12.73;5.75;;;10.50;1.40;;;;;;6151200;28;20061;-83
2024/03/26 07:32:12;;;;;;;11.68;4.65;;;10.50;4.60;;;;;;6186070;28;20053;-81
2024/03/26 07:35:13;;;;;;;11.35;5.32;;;10.50;4.80;;;;;;6179001;28;20050;-81
2024/03/26 07:38:14;;;;;;;18.20;5.65;;;10.60;1.00;;;;;;6186394;28;20068;-83
2024/03/26 07:41:14;;;;;;;11.50;5.07;;;10.60;1.00;;;;;;6163020;28;20058;-82
2024/03/26 07:44:15;;;;;;;14.45;5.82;;;10.60;1.00;;;;;;6191098;28;20046;-81
2024/03/26 07:47:16;;;;;;;13.65;5.50;;;10.80;1.10;;;;;;6180128;28;20057;-82
2024/03/26 07:50:17;;;;;;;12.25;5.05;;;11.00;1.00;;;;;;6202473;28;20116;-82
2024/03/26 07:53:17;;;;;;;12.80;5.40;;;11.30;1.00;;;;;;6178823;28;20058;-81
2024/03/26 07:56:18;;;;;;;9.95;5.57;;;11.30;1.00;;;;;;6185493;28;20113;-80
2024/03/26 07:59:19;;;;;;;9.85;4.78;;;11.30;1.00;;;;;;6168829;28;20137;-83
2024/03/26 08:02:19;;;;;;;16.38;5.47;;;11.30;1.00;;;;;;6201338;28;20064;-81
2024/03/26 08:05:20;;;;;;;11.00;4.72;;;11.80;1.00;;;;;;6178485;28;20070;-82
2024/03/26 08:08:21;;;;;;;12.75;5.07;;;12.00;1.00;;;;;;6203677;28;20094;-84
2024/03/26 08:11:21;;;;;;;11.15;4.82;;;11.90;1.00;;;;;;6206293;28;20185;-85
2024/03/26 08:14:22;;;;;;;8.82;4.25;;;11.90;1.00;;;;;;6187139;28;20491;-84
2024/03/26 08:17:23;;;;;;;9.88;5.03;;;12.20;1.00;;;;;;6205052;28;20053;-88
2024/03/26 08:20:28;;;;;;;11.40;4.72;;;12.30;1.00;;;;;;6183087;28;20085;-84
2024/03/26 08:23:29;;;;;;;9.48;4.53;;;12.50;1.00;;;;;;6206124;28;20046;-87
2024/03/26 08:26:30;;;;;;;14.70;4.57;;;12.70;1.00;;;;;;6183511;28;20451;-94
2024/03/26 08:29:31;;;;;;;9.35;4.07;;;13.20;1.00;;;;;;6182250;28;20057;-93
2024/03/26 08:32:32;;;;;;;10.55;3.65;;;14.10;1.00;;;;;;6189830;28;20124;-84
2024/03/26 08:35:32;;;;;;;10.95;3.63;;;15.10;1.00;;;;;;6179958;28;20524;-88
2024/03/26 08:38:33;;;;;;;17.70;4.45;;;16.10;1.00;;;;;;6205776;28;20061;-87
2024/03/26 08:41:34;;;;;;;36.63;4.68;;;16.50;1.00;;;;;;6165580;28;20058;-87
2024/03/26 08:44:34;;;;;;;17.80;3.90;;;16.20;1.00;;;;;;6166736;28;20050;-82
2024/03/26 08:47:35;;;;;;;6.60;3.67;;;15.80;1.00;;;;;;6200926;28;20050;-82
2024/03/26 08:50:35;;;;;;;10.00;4.10;;;16.00;1.00;;;;;;6177756;28;20168;-82
2024/03/26 08:53:36;;;;;;;9.93;3.45;;;15.60;1.00;;;;;;6198934;28;20494;-83
2024/03/26 08:56:37;;;;;;;8.52;3.35;;;15.30;1.00;;;;;;6185506;28;20913;-82
2024/03/26 08:59:41;;;;;;;10.63;3.60;;;15.20;1.00;;;;;;6177520;28;20094;-83
2024/03/26 09:02:41;;;;;;;9.13;3.42;;;15.30;1.00;;;;;;6202406;28;20057;-84
2024/03/26 09:05:42;;;;;;;7.70;3.33;;;15.60;1.00;;;;;;6179393;28;20069;-83
2024/03/26 09:08:43;;;;;;;9.70;2.97;;;15.30;1.00;;;;;;6204843;28;20530;-85
2024/03/26 09:11:44;;;;;;;7.90;3.53;;;15.20;1.00;;;;;;6183603;28;20064;-83
2024/03/26 09:14:45;;;;;;;8.55;3.30;;;15.30;1.00;;;;;;6183655;28;20066;-87
2024/03/26 09:17:45;;;;;;;9.43;3.33;;;15.20;1.00;;;;;;6210132;28;20089;-88
2024/03/26 09:20:46;;;;;;;7.97;3.38;;;15.40;1.00;;;;;;6185687;28;20502;-86
2024/03/26 09:23:47;;;;;;;13.05;3.50;;;15.50;1.00;;;;;;6209090;28;20054;-85
2024/03/26 09:26:48;;;;;;;5.93;3.15;;;15.80;1.00;;;;;;6185457;28;20098;-84
2024/03/26 09:29:49;;;;;;;10.55;3.38;;;16.10;1.00;;;;;;6188208;28;20058;-86
2024/03/26 09:32:50;;;;;;;7.35;3.30;;;16.70;1.00;;;;;;6208375;28;20061;-84
2024/03/26 09:35:52;;;;;;;7.68;3.33;;;17.10;1.00;;;;;;6186490;28;20065;-87
2024/03/26 09:38:52;;;;;;;11.63;3.45;;;17.40;1.00;;;;;;6194072;28;20054;-86
2024/03/26 09:41:53;;;;;;;9.20;2.90;;;17.80;1.00;;;;;;6188120;28;20106;-87
2024/03/26 09:44:54;;;;;;;7.78;3.20;;;18.00;1.00;;;;;;6186578;28;20124;-91
2024/03/26 09:47:56;;;;;;;7.55;3.00;;;17.70;1.00;;;;;;6195292;28;20142;-92
2024/03/26 09:50:57;;;;;;;9.98;3.30;;;17.60;1.00;;;;;;6176872;28;20064;-88
2024/03/26 09:53:57;;;;;;;9.77;3.38;;;17.60;1.00;;;;;;6216179;28;20098;-88
2024/03/26 09:56:58;;;;;;;5.90;2.90;;;17.80;1.00;;;;;;6190208;28;20058;-91
2024/03/26 09:59:59;;;;;;;10.20;3.22;;;17.70;1.00;;;;;;6193831;28;20072;-81
2024/03/26 10:03:00;;;;;;;6.55;3.33;;;17.90;1.00;;;;;;6194945;28;20034;-81
2024/03/26 10:06:02;;;;;;;8.23;3.65;;;17.60;1.00;;;;;;6191734;28;20054;-85
2024/03/26 10:09:03;;;;;;;11.07;3.40;;;17.90;1.00;;;;;;6190211;28;20104;-85
2024/03/26 10:12:04;;;;;;;9.80;3.67;;;18.00;1.00;;;;;;6213021;28;20050;-85
2024/03/26 10:15:05;;;;;;;9.27;3.53;;;18.20;1.00;;;;;;6217706;28;20053;-81
2024/03/26 10:18:06;;;;;;;8.63;3.20;;;18.20;1.00;;;;;;6185868;28;20043;-81
2024/03/26 10:21:07;;;;;;;8.25;3.67;;;18.20;1.00;;;;;;6206830;28;20064;-82
2024/03/26 10:24:08;;;;;;;6.80;3.25;;;19.00;1.00;;;;;;6210104;28;20053;-89
2024/03/26 10:27:09;;;;;;;7.22;2.83;;;19.40;1.00;;;;;;6186343;28;20481;-88
2024/03/26 10:30:10;;;;;;;6.35;2.97;;;19.50;1.00;;;;;;6195901;28;20148;-90
2024/03/26 10:33:11;;;;;;;8.82;2.72;;;19.50;1.00;;;;;;6182674;28;20141;-82
2024/03/26 10:36:11;;;;;;;7.40;3.00;;;19.20;1.00;;;;;;6205549;28;20049;-83
2024/03/26 10:39:13;;;;;;;5.60;2.53;;;19.30;1.00;;;;;;6203530;28;20057;-83
2024/03/26 10:42:13;;;;;;;5.40;2.60;;;18.90;1.00;;;;;;6181536;28;20525;-88
2024/03/26 10:45:14;;;;;;;6.53;2.85;;;18.70;1.00;;;;;;6194235;28;20150;-83
2024/03/26 10:48:15;;;;;;;7.60;3.00;;;18.30;1.00;;;;;;6203819;28;20777;-86
2024/03/26 10:51:15;;;;;;;6.00;3.13;;;18.30;1.00;;;;;;6210789;28;20054;-84
2024/03/26 10:54:16;;;;;;;8.82;3.15;;;18.60;1.00;;;;;;6209045;28;20380;-90
2024/03/26 10:57:16;;;;;;;8.25;3.20;;;18.70;1.00;;;;;;6183124;28;20068;-85
2024/03/26 11:00:18;;;;;;;8.48;3.67;;;18.90;1.00;;;;;;6194616;28;20139;-91
2024/03/26 11:03:19;;;;;;;6.78;3.10;;;18.60;1.00;;;;;;6182719;28;20080;-81
2024/03/26 11:06:19;;;;;;;5.65;3.05;;;18.10;1.00;;;;;;6197568;28;20058;-86
2024/03/26 11:09:20;;;;;;;5.63;2.90;;;17.80;1.00;;;;;;6183764;28;20054;-83
2024/03/26 11:12:21;;;;;;;8.18;3.28;;;17.70;1.00;;;;;;6205659;28;20062;-82
2024/03/26 11:15:22;;;;;;;14.60;3.67;;;17.80;1.00;;;;;;6194579;28;20092;-80
2024/03/26 11:18:22;;;;;;;9.55;3.60;;;17.60;1.00;;;;;;6178797;28;20073;-80
2024/03/26 11:21:23;;;;;;;8.30;3.70;;;17.30;1.00;;;;;;6202407;28;20540;-80
2024/03/26 11:24:24;;;;;;;7.32;3.53;;;17.10;1.00;;;;;;6203742;28;20049;-80
2024/03/26 11:27:24;;;;;;;7.32;3.80;;;16.90;1.00;;;;;;6185602;28;20062;-83
2024/03/26 11:30:25;;;;;;;8.02;3.83;;;17.10;1.00;;;;;;6199516;28;20516;-91
2024/03/26 11:33:26;;;;;;;7.40;3.63;;;17.10;1.00;;;;;;6207493;28;20468;-86
2024/03/26 11:36:27;;;;;;;6.88;3.63;;;17.10;1.00;;;;;;6203856;28;20200;-83
2024/03/26 11:39:28;;;;;;;13.32;4.55;;;17.10;1.00;;;;;;6188623;28;20429;-83
2024/03/26 11:42:29;;;;;;;8.52;3.95;;;17.10;1.00;;;;;;6180875;28;20454;-85
2024/03/26 11:45:29;;;;;;;8.18;3.80;;;17.20;1.00;;;;;;6158851;28;20070;-81
2024/03/26 11:48:30;;;;;;;7.93;3.85;;;17.60;1.00;;;;;;6202346;28;20081;-80
2024/03/26 11:51:30;;;;;;;6.35;3.60;;;17.90;1.00;;;;;;6162040;28;20128;-80
2024/03/26 11:54:31;;;;;;;13.68;3.45;;;18.40;1.00;;;;;;6201696;28;20053;-81
2024/03/26 11:57:32;;;;;;;6.47;2.80;;;18.60;1.00;;;;;;6202076;28;20054;-81
2024/03/26 12:00:32;;;;;;;9.27;2.85;;;18.50;1.00;;;;;;6178476;28;20060;-81
2024/03/26 12:03:33;;;;;;;10.30;3.53;;;18.40;1.00;;;;;;6162937;28;20054;-80
2024/03/26 12:06:34;;;;;;;11.65;4.13;;;17.70;1.00;;;;;;6205065;28;20064;-84
2024/03/26 12:09:34;;;;;;;9.88;3.60;;;17.10;1.00;;;;;;6203722;28;20053;-80
2024/03/26 12:12:36;;;;;;;9.90;3.90;;;17.00;1.00;;;;;;6202513;28;20104;-86
2024/03/26 12:15:36;;;;;;;8.45;3.92;;;16.90;1.00;;;;;;6153807;28;20120;-81
2024/03/26 12:18:37;;;;;;;7.70;3.85;;;16.90;1.00;;;;;;6201310;28;20050;-81
2024/03/26 12:21:38;;;;;;;8.30;3.25;;;16.80;1.00;;;;;;6203487;28;20104;-81
2024/03/26 12:24:38;;;;;;;8.23;3.72;;;16.60;1.00;;;;;;6186959;28;20056;-81
2024/03/26 12:27:39;;;;;;;6.05;3.10;;;16.40;1.00;;;;;;6202129;28;20148;-82
2024/03/26 12:30:40;;;;;;;6.68;3.33;;;16.70;1.00;;;;;;6180951;28;20097;-79
2024/03/26 12:33:41;;;;;;;11.27;3.33;;;17.10;1.00;;;;;;6177949;28;20090;-80
2024/03/26 12:36:42;;;;;;;9.77;3.80;;;17.30;1.00;;;;;;6177011;28;20459;-83
2024/03/26 12:39:42;;;;;;;7.03;2.70;;;17.50;1.00;;;;;;6198824;28;20058;-82
2024/03/26 12:42:43;;;;;;;5.15;2.85;;;17.50;1.00;;;;;;6200892;28;20152;-81
2024/03/26 12:45:44;;;;;;;5.80;2.60;;;17.40;1.00;;;;;;6157013;28;20065;-81
2024/03/26 12:48:44;;;;;;;7.13;2.85;;;17.40;1.00;;;;;;6185152;28;20046;-81
2024/03/26 12:51:45;;;;;;;6.07;2.55;;;17.20;1.00;;;;;;6178756;28;20587;-82
2024/03/26 12:54:46;;;;;;;10.02;2.92;;;17.30;1.00;;;;;;6200963;28;20104;-81
2024/03/26 12:57:47;;;;;;;26.20;3.95;;;17.30;1.00;;;;;;6162725;28;20150;-82
2024/03/26 13:00:48;;;;;;;6.93;2.83;;;17.10;1.00;;;;;;6179993;28;20129;-82
2024/03/26 13:03:49;;;;;;;9.95;3.38;;;16.90;1.00;;;;;;6177817;28;20532;-82
2024/03/26 13:06:50;;;;;;;7.30;2.97;;;16.50;1.00;;;;;;6201405;28;20144;-81
2024/03/26 13:09:51;;;;;;;7.72;3.10;;;16.30;1.00;;;;;;6185887;28;20054;-81
2024/03/26 13:12:52;;;;;;;8.02;3.10;;;16.20;1.00;;;;;;6201230;28;20763;-83
2024/03/26 13:15:53;;;;;;;6.70;2.90;;;16.30;1.00;;;;;;6192653;28;20081;-82
2024/03/26 13:18:54;;;;;;;6.35;2.55;;;16.00;1.00;;;;;;6178477;28;20832;-82
2024/03/26 13:21:54;;;;;;;7.72;2.83;;;15.90;1.00;;;;;;6201882;28;20046;-81
2024/03/26 13:24:55;;;;;;;10.05;2.78;;;15.70;1.00;;;;;;6202177;28;20107;-81
2024/03/26 13:27:56;;;;;;;7.80;2.72;;;15.50;1.00;;;;;;6179072;28;20488;-83
2024/03/26 13:30:56;;;;;;;7.90;3.47;;;15.30;1.00;;;;;;6196469;28;20119;-81
2024/03/26 13:33:57;;;;;;;8.43;3.40;;;15.20;1.00;;;;;;6176841;28;20097;-81
2024/03/26 13:36:58;;;;;;;6.72;3.20;;;15.10;1.00;;;;;;6176863;28;20061;-82
2024/03/26 13:39:59;;;;;;;8.80;3.25;;;15.10;1.00;;;;;;6198962;28;20053;-82
2024/03/26 13:43:00;;;;;;;8.95;3.63;;;15.00;1.00;;;;;;6183134;28;20073;-82
2024/03/26 13:46:00;;;;;;;9.23;3.08;;;14.90;1.00;;;;;;6159573;28;20055;-82
2024/03/26 13:49:01;;;;;;;8.77;3.60;;;14.90;1.00;;;;;;6192465;28;20148;-81
2024/03/26 13:52:02;;;;;;;8.23;3.50;;;14.80;1.00;;;;;;6169713;28;20069;-81
2024/03/26 13:55:04;;;;;;;8.10;3.25;;;14.70;1.00;;;;;;6194791;28;20429;-81
2024/03/26 13:58:04;;;;;;;8.77;3.60;;;14.70;1.00;;;;;;6159290;28;20470;-81
2024/03/26 14:01:05;;;;;;;9.05;3.95;;;14.90;1.00;;;;;;6176926;28;20113;-81
2024/03/26 14:04:06;;;;;;;7.40;2.90;;;14.80;1.00;;;;;;6158536;28;20058;-81
2024/03/26 14:07:07;;;;;;;7.32;2.97;;;14.80;1.00;;;;;;6196611;28;20069;-81
2024/03/26 14:10:08;;;;;;;5.22;2.78;;;14.70;1.00;;;;;;6197577;28;20093;-81
2024/03/26 14:13:10;;;;;;;8.13;3.10;;;14.60;1.00;;;;;;6171106;28;20062;-82
2024/03/26 14:16:11;;;;;;;6.45;3.00;;;14.60;1.00;;;;;;6181371;28;20120;-83
2024/03/26 14:19:11;;;;;;;7.63;3.13;;;14.50;1.00;;;;;;6172562;28;20455;-82
2024/03/26 14:22:12;;;;;;;8.55;3.60;;;14.50;1.00;;;;;;6196359;28;20061;-82
2024/03/26 14:25:15;;;;;;;7.72;3.38;;;14.50;1.00;;;;;;6180801;28;20073;-82
2024/03/26 14:28:16;;;;;;;10.15;3.60;;;14.50;1.00;;;;;;6191522;28;20050;-82
2024/03/26 14:31:22;;;;;;;7.80;3.22;;;14.40;1.00;;;;;;6196708;28;20080;-80
2024/03/26 14:34:23;;;;;;;8.88;3.15;;;14.40;1.00;;;;;;6188995;28;20055;-82
2024/03/26 14:37:24;;;;;;;7.65;3.42;;;14.40;1.00;;;;;;6196188;28;20066;-81
2024/03/26 14:40:25;;;;;;;9.27;3.30;;;14.30;1.00;;;;;;6194793;28;20108;-82
2024/03/26 14:43:26;;;;;;;9.77;3.70;;;14.40;1.00;;;;;;6186386;28;20654;-82
2024/03/26 14:46:27;;;;;;;10.20;3.83;;;14.20;1.00;;;;;;6172204;28;20514;-81
2024/03/26 14:49:28;;;;;;;10.43;6.00;;;14.20;1.00;;;;;;6195539;28;20062;-82
2024/03/26 14:52:28;;;;;;;9.32;3.75;;;14.10;1.00;;;;;;6173520;28;20066;-81
2024/03/26 14:55:31;;;;;;;9.52;3.45;;;14.20;1.00;;;;;;6196171;28;20062;-81
2024/03/26 14:58:31;;;;;;;6.97;3.40;;;14.10;1.00;;;;;;6173013;28;20054;-81
2024/03/26 15:01:32;;;;;;;8.05;3.42;;;14.00;1.00;;;;;;6195686;28;20144;-82
2024/03/26 15:04:33;;;;;;;8.18;3.90;;;13.80;1.00;;;;;;6172173;28;20059;-81
2024/03/26 15:07:34;;;;;;;10.32;3.50;;;13.70;1.10;;;;;;6178669;28;20513;-82
2024/03/26 15:10:35;;;;;;;9.45;3.72;;;13.60;5.50;;;;;;6159492;28;20081;-80
2024/03/26 15:13:36;;;;;;;8.95;3.75;;;13.60;18.10;;;;;;6179786;28;20797;-80
2024/03/26 15:16:36;;;;;;;9.45;3.72;;;13.30;15.30;;;;;;6171536;28;20058;-80
2024/03/26 15:19:37;;;;;;;7.18;3.38;;;13.40;30.50;;;;;;6179307;28;20352;-81
2024/03/26 15:22:38;;;;;;;10.00;3.95;;;13.30;48.60;;;;;;6172152;28;20054;-81
2024/03/26 15:25:38;;;;;;;8.40;3.92;;;13.30;45.40;;;;;;6192956;28;20395;-80
2024/03/26 15:31:58;;;;;;;8.82;3.88;;;12.90;60.40;;;;;;6171667;28;20422;-82
2024/03/26 15:34:59;;;;;;;9.45;4.00;;;12.70;77.30;;;;;;6194498;28;20062;-81
2024/03/26 15:38:00;;;;;;;7.22;3.50;;;12.70;92.00;;;;;;6171344;28;20097;-80
2024/03/26 15:41:01;;;;;;;7.35;3.60;;;12.60;91.80;;;;;;6192676;28;20057;-81
2024/03/26 15:44:01;;;;;;;6.75;3.60;;;12.50;90.90;;;;;;6182995;28;20058;-81
2024/03/26 15:47:05;;;;;;;8.80;3.70;;;12.50;77.50;;;;;;6179385;28;20069;-81
2024/03/26 15:50:06;;;;;;;7.93;3.50;;;12.50;76.40;;;;;;6203131;28;20053;-82
2024/03/26 15:53:07;;;;;;;8.48;3.92;;;12.60;80.20;;;;;;6163433;28;20108;-82
2024/03/26 15:56:09;;;;;;;7.55;3.40;;;12.60;83.90;;;;;;6202566;28;20089;-82
2024/03/26 15:59:10;;;;;;;9.18;3.90;;;12.60;84.00;;;;;;6179775;28;20073;-81